createdAt,value
2018-07-27T00:00:38.410Z,61.59
2018-07-27T00:03:13.882Z,60.83
2018-07-27T00:05:48.896Z,61.33
2018-07-27T00:08:25.226Z,62.41
2018-07-27T00:11:01.528Z,62.74
2018-07-27T00:13:37.310Z,61.89
2018-07-27T00:16:13.735Z,62.34
2018-07-27T00:18:48.542Z,63.40
2018-07-27T00:21:24.646Z,64.26
2018-07-27T00:24:00.723Z,63.62
2018-07-27T00:26:36.271Z,64.72
2018-07-27T00:29:13.199Z,64.22
2018-07-27T00:31:50.405Z,65.89
2018-07-27T00:34:26.337Z,66.87
2018-07-27T00:37:20.283Z,64.56
2018-07-27T00:39:56.089Z,65.33
2018-07-27T00:42:30.676Z,64.69
2018-07-27T00:45:04.998Z,65.64
2018-07-27T00:47:36.247Z,66.16
2018-07-27T00:50:14.087Z,67.55
2018-07-27T00:52:46.520Z,66.81
2018-07-27T00:55:22.941Z,65.61
2018-07-27T00:57:56.905Z,65.91
2018-07-27T01:00:39.071Z,66.02
2018-07-27T01:03:18.340Z,67.49
2018-07-27T01:05:52.740Z,70.52
2018-07-27T01:08:27.405Z,70.51
2018-07-27T01:11:04.156Z,69.12
2018-07-27T01:13:42.380Z,68.18
2018-07-27T01:16:19.517Z,67.81
2018-07-27T01:18:56.043Z,67.05
2018-07-27T01:21:45.428Z,67.03
2018-07-27T01:24:23.134Z,66.21
2018-07-27T01:26:59.460Z,67.63
2018-07-27T01:29:33.926Z,70.09
2018-07-27T01:32:11.399Z,70.00
2018-07-27T01:34:46.911Z,69.26
2018-07-27T01:37:24.074Z,68.57
2018-07-27T01:40:01.385Z,69.07
2018-07-27T01:42:37.405Z,68.54
2018-07-27T01:45:15.296Z,69.81
2018-07-27T01:47:51.636Z,69.95
2018-07-27T01:50:25.126Z,71.38
2018-07-27T01:52:58.748Z,71.91
2018-07-27T01:55:33.004Z,71.93
2018-07-27T01:58:08.480Z,71.05
2018-07-27T02:00:44.266Z,71.65
2018-07-27T02:03:19.753Z,70.92
2018-07-27T02:05:55.287Z,70.65
2018-07-27T02:08:31.338Z,70.21
2018-07-27T02:11:06.709Z,68.68
2018-07-27T02:13:42.206Z,69.58
2018-07-27T02:16:17.893Z,69.49
2018-07-27T02:18:51.817Z,69.38
2018-07-27T02:21:27.027Z,68.82
2018-07-27T02:24:02.725Z,69.42
2018-07-27T02:26:38.474Z,69.96
2018-07-27T02:29:07.238Z,70.24
2018-07-27T02:31:35.825Z,71.50
2018-07-27T02:34:04.377Z,70.81
2018-07-27T02:36:50.035Z,69.28
2018-07-27T02:39:33.541Z,69.06
2018-07-27T02:42:08.614Z,71.01
2018-07-27T02:44:42.161Z,71.08
2018-07-27T02:47:14.613Z,70.27
2018-07-27T02:49:55.732Z,70.82
2018-07-27T02:52:31.638Z,72.24
2018-07-27T02:55:06.258Z,73.10
2018-07-27T02:57:40.747Z,72.16
2018-07-27T03:00:16.513Z,71.47
2018-07-27T03:02:51.930Z,71.11
2018-07-27T03:05:25.418Z,71.17
2018-07-27T03:08:10.187Z,72.03
2018-07-27T03:10:48.554Z,73.23
2018-07-27T03:13:24.391Z,72.21
2018-07-27T03:15:56.611Z,72.20
2018-07-27T03:18:31.064Z,71.85
2018-07-27T03:20:59.728Z,69.97
2018-07-27T03:23:40.008Z,71.47
2018-07-27T03:26:08.613Z,71.02
2018-07-27T03:28:37.131Z,70.64
2018-07-27T03:31:05.677Z,70.06
2018-07-27T03:33:34.281Z,71.88
2018-07-27T03:36:02.823Z,71.04
2018-07-27T03:38:31.357Z,72.69
2018-07-27T03:40:59.937Z,73.72
2018-07-27T03:43:28.459Z,73.20
2018-07-27T03:45:57.012Z,72.05
2018-07-27T03:48:25.565Z,71.16
2018-07-27T03:50:54.153Z,72.15
2018-07-27T03:53:22.672Z,71.92
2018-07-27T03:55:51.280Z,71.96
2018-07-27T03:58:19.836Z,72.29
2018-07-27T04:00:48.404Z,72.39
2018-07-27T04:03:17.376Z,72.59
2018-07-27T04:05:45.896Z,72.58
2018-07-27T04:08:14.454Z,72.96
2018-07-27T04:10:42.996Z,73.10
2018-07-27T04:13:11.532Z,74.42
2018-07-27T04:15:40.077Z,74.81
2018-07-27T04:18:08.648Z,74.76
2018-07-27T04:20:37.311Z,74.74
2018-07-27T04:23:06.437Z,73.61
2018-07-27T04:25:34.956Z,74.00
2018-07-27T04:28:03.506Z,74.50
2018-07-27T04:30:32.866Z,73.74
2018-07-27T04:33:01.429Z,73.94
2018-07-27T04:35:29.959Z,73.55
2018-07-27T04:37:58.998Z,72.61
2018-07-27T04:40:27.552Z,72.42
2018-07-27T04:42:56.180Z,73.59
2018-07-27T04:45:24.705Z,73.47
2018-07-27T04:47:53.261Z,74.53
2018-07-27T04:50:21.800Z,75.08
2018-07-27T04:52:50.423Z,73.72
2018-07-27T04:55:18.960Z,74.22
2018-07-27T04:57:47.853Z,73.90
2018-07-27T05:00:16.471Z,73.47
2018-07-27T05:02:45.046Z,74.37
2018-07-27T05:05:13.580Z,73.78
2018-07-27T05:07:42.132Z,73.54
2018-07-27T05:10:15.940Z,71.95
2018-07-27T05:12:44.520Z,70.89
2018-07-27T05:15:13.036Z,70.15
2018-07-27T05:17:41.598Z,70.55
2018-07-27T05:20:10.265Z,71.56
2018-07-27T05:22:39.191Z,70.75
2018-07-27T05:25:07.777Z,71.37
2018-07-27T05:27:36.392Z,70.87
2018-07-27T05:30:05.084Z,70.45
2018-07-27T05:32:33.632Z,70.00
2018-07-27T05:35:02.144Z,71.04
2018-07-27T05:37:30.684Z,70.50
2018-07-27T05:39:59.192Z,70.34
2018-07-27T05:42:27.764Z,71.88
2018-07-27T05:44:56.272Z,69.98
2018-07-27T05:47:24.824Z,71.21
2018-07-27T05:49:53.333Z,69.06
2018-07-27T05:52:21.877Z,68.76
2018-07-27T05:54:50.440Z,67.73
2018-07-27T05:57:19.657Z,67.61
2018-07-27T05:59:48.197Z,66.98
2018-07-27T06:02:16.743Z,65.96
2018-07-27T06:04:45.327Z,65.07
2018-07-27T06:07:18.564Z,64.76
2018-07-27T06:09:47.398Z,64.89
2018-07-27T06:12:18.782Z,65.84
2018-07-27T06:14:47.805Z,66.04
2018-07-27T06:17:16.556Z,66.23
2018-07-27T06:19:45.108Z,65.00
2018-07-27T06:22:13.621Z,65.41
2018-07-27T06:24:54.364Z,64.32
2018-07-27T06:27:25.677Z,63.57
2018-07-27T06:29:55.042Z,62.67
2018-07-27T06:32:23.572Z,62.11
2018-07-27T06:34:52.131Z,61.20
2018-07-27T06:37:20.680Z,60.44
2018-07-27T06:39:49.741Z,60.44
2018-07-27T06:42:18.321Z,59.66
2018-07-27T06:44:46.909Z,59.04
2018-07-27T06:47:15.466Z,59.39
2018-07-27T06:49:44.015Z,56.40
2018-07-27T06:52:12.580Z,56.37
2018-07-27T06:54:41.140Z,56.08
2018-07-27T06:57:09.688Z,55.57
2018-07-27T06:59:38.250Z,54.23
2018-07-27T07:02:06.802Z,54.35
2018-07-27T07:04:35.341Z,52.30
2018-07-27T07:07:03.860Z,51.04
2018-07-27T07:09:32.422Z,51.74
2018-07-27T07:12:00.955Z,51.60
2018-07-27T07:14:35.126Z,50.04
2018-07-27T07:17:11.598Z,49.27
2018-07-27T07:19:47.290Z,48.83
2018-07-27T07:22:16.100Z,49.05
2018-07-27T07:24:44.932Z,48.37
2018-07-27T07:27:13.444Z,48.43
2018-07-27T07:29:48.077Z,48.00
2018-07-27T07:32:18.965Z,47.24
2018-07-27T07:34:47.607Z,47.24
2018-07-27T07:37:16.138Z,47.52
2018-07-27T07:39:51.293Z,47.22
2018-07-27T07:42:20.840Z,47.77
2018-07-27T07:44:49.392Z,47.81
2018-07-27T07:47:17.908Z,48.69
2018-07-27T07:49:50.555Z,48.38
2018-07-27T07:52:19.276Z,46.80
2018-07-27T07:54:47.825Z,47.98
2018-07-27T07:57:22.633Z,47.43
2018-07-27T07:59:51.344Z,47.05
2018-07-27T08:02:20.956Z,47.19
2018-07-27T08:04:49.599Z,47.87
2018-07-27T08:07:18.159Z,47.33
2018-07-27T08:09:46.692Z,46.64
2018-07-27T08:12:18.040Z,47.02
2018-07-27T08:14:46.608Z,46.48
2018-07-27T08:17:17.300Z,47.12
2018-07-27T08:19:47.210Z,45.89
2018-07-27T08:22:22.395Z,45.92
2018-07-27T08:24:54.976Z,45.03
2018-07-27T08:27:25.821Z,44.97
2018-07-27T08:29:54.780Z,44.29
2018-07-27T08:32:26.665Z,43.27
2018-07-27T08:34:57.076Z,43.93
2018-07-27T08:37:25.604Z,44.38
2018-07-27T08:39:54.936Z,44.45
2018-07-27T08:42:23.513Z,43.67
2018-07-27T08:44:52.052Z,44.47
2018-07-27T08:47:21.296Z,43.91
2018-07-27T08:49:49.836Z,43.85
2018-07-27T08:52:18.400Z,43.04
2018-07-27T08:54:46.961Z,42.52
2018-07-27T08:57:15.721Z,42.71
2018-07-27T08:59:44.288Z,42.27
2018-07-27T09:02:12.824Z,42.28
2018-07-27T09:04:41.342Z,42.43
2018-07-27T09:07:09.892Z,42.18
2018-07-27T09:09:38.405Z,41.78
2018-07-27T09:12:07.272Z,39.96
2018-07-27T09:14:35.781Z,40.93
2018-07-27T09:17:04.340Z,40.84
2018-07-27T09:19:34.822Z,40.42
2018-07-27T09:22:03.533Z,40.69
2018-07-27T09:24:32.265Z,39.66
2018-07-27T09:27:00.657Z,39.39
2018-07-27T09:29:29.217Z,39.62
2018-07-27T09:31:58.693Z,37.67
2018-07-27T09:34:27.213Z,37.75
2018-07-27T09:36:56.214Z,38.63
2018-07-27T09:39:24.816Z,39.75
2018-07-27T09:41:53.396Z,38.49
2018-07-27T09:44:22.930Z,38.96
2018-07-27T09:46:51.845Z,37.32
2018-07-27T09:49:22.341Z,37.65
2018-07-27T09:51:52.852Z,38.04
2018-07-27T09:54:22.121Z,36.68
2018-07-27T09:56:50.681Z,37.29
2018-07-27T09:59:19.241Z,37.88
2018-07-27T10:01:47.864Z,37.36
2018-07-27T10:04:16.374Z,36.43
2018-07-27T10:06:44.913Z,35.06
2018-07-27T10:09:13.560Z,35.25
2018-07-27T10:11:42.116Z,34.93
2018-07-27T10:14:10.633Z,34.09
2018-07-27T10:16:39.335Z,34.28
2018-07-27T10:19:07.989Z,33.60
2018-07-27T10:21:36.545Z,34.58
2018-07-27T10:24:05.129Z,34.18
2018-07-27T10:26:34.004Z,34.63
2018-07-27T10:29:02.516Z,35.30
2018-07-27T10:31:31.105Z,32.64
2018-07-27T10:34:01.860Z,32.64
2018-07-27T10:36:30.728Z,33.39
2018-07-27T10:38:59.536Z,32.09
2018-07-27T10:41:30.929Z,32.44
2018-07-27T10:44:00.213Z,31.58
2018-07-27T10:46:30.033Z,31.61
2018-07-27T10:48:58.668Z,30.89
2018-07-27T10:51:27.456Z,29.69
2018-07-27T10:53:56.008Z,30.39
2018-07-27T10:56:25.840Z,28.23
2018-07-27T10:58:54.663Z,28.64
2018-07-27T11:01:23.240Z,28.42
2018-07-27T11:03:52.364Z,27.82
2018-07-27T11:06:20.876Z,28.12
2018-07-27T11:08:49.471Z,27.53
2018-07-27T11:11:17.992Z,28.88
2018-07-27T11:13:46.789Z,29.90
2018-07-27T11:16:15.364Z,29.41
2018-07-27T11:18:44.010Z,28.62
2018-07-27T11:21:14.025Z,29.62
2018-07-27T11:23:42.664Z,29.32
2018-07-27T11:26:11.191Z,28.14
2018-07-27T11:28:39.732Z,28.31
2018-07-27T11:31:08.368Z,29.60
2018-07-27T11:33:44.005Z,29.35
2018-07-27T11:36:17.576Z,28.33
2018-07-27T11:38:47.015Z,29.14
2018-07-27T11:41:17.700Z,28.52
2018-07-27T11:43:47.432Z,28.20
2018-07-27T11:46:18.294Z,27.93
2018-07-27T11:48:53.742Z,28.41
2018-07-27T11:51:24.776Z,26.87
2018-07-27T11:53:55.182Z,27.13
2018-07-27T11:56:23.944Z,28.03
2018-07-27T11:58:56.582Z,27.75
2018-07-27T12:01:31.271Z,28.14
2018-07-27T12:04:04.384Z,26.80
2018-07-27T12:06:35.778Z,26.82
2018-07-27T12:09:11.353Z,26.42
2018-07-27T12:11:41.806Z,27.94
2018-07-27T12:14:14.678Z,26.53
2018-07-27T12:16:43.125Z,26.16
2018-07-27T12:19:13.032Z,26.30
2018-07-27T12:21:45.646Z,25.16
2018-07-27T12:24:16.290Z,24.15
2018-07-27T12:26:47.345Z,25.46
2018-07-27T12:29:19.072Z,26.47
2018-07-27T12:31:51.657Z,25.09
2018-07-27T12:34:22.092Z,25.39
2018-07-27T12:36:50.624Z,25.00
2018-07-27T12:39:22.259Z,24.49
2018-07-27T12:41:50.840Z,24.92
2018-07-27T12:44:19.394Z,23.52
2018-07-27T12:46:48.821Z,23.57
2018-07-27T12:49:17.579Z,24.12
2018-07-27T12:51:46.089Z,24.47
2018-07-27T12:54:14.637Z,24.20
2018-07-27T12:56:43.166Z,25.93
2018-07-27T12:59:11.728Z,24.67
2018-07-27T13:01:40.805Z,24.67
2018-07-27T13:04:09.733Z,25.61
2018-07-27T13:06:38.247Z,25.36
2018-07-27T13:09:12.366Z,25.29
2018-07-27T13:11:42.861Z,25.02
2018-07-27T13:14:11.484Z,25.19
2018-07-27T13:16:41.428Z,24.62
2018-07-27T13:19:13.830Z,25.12
2018-07-27T13:21:44.469Z,25.28
2018-07-27T13:24:13.052Z,24.07
2018-07-27T13:26:41.634Z,24.07
2018-07-27T13:29:10.448Z,25.37
2018-07-27T13:31:54.044Z,24.79
2018-07-27T13:34:42.325Z,24.09
2018-07-27T13:37:10.972Z,25.24
2018-07-27T13:39:40.448Z,25.90
2018-07-27T13:42:11.083Z,25.32
2018-07-27T13:44:40.176Z,26.93
2018-07-27T13:47:09.346Z,27.62
2018-07-27T13:49:38.304Z,28.43
2018-07-27T13:52:06.884Z,26.86
2018-07-27T13:54:35.927Z,28.60
2018-07-27T13:57:04.571Z,27.79
2018-07-27T13:59:33.099Z,27.43
2018-07-27T14:02:01.656Z,25.82
2018-07-27T14:04:30.232Z,26.28
2018-07-27T14:06:59.983Z,27.45
2018-07-27T14:09:28.530Z,27.28
2018-07-27T14:11:57.226Z,27.95
2018-07-27T14:14:26.320Z,26.51
2018-07-27T14:16:54.864Z,26.85
2018-07-27T14:19:24.072Z,25.90
2018-07-27T14:21:53.333Z,28.12
2018-07-27T14:24:22.005Z,27.84
2018-07-27T14:26:50.570Z,27.39
2018-07-27T14:29:19.697Z,26.56
2018-07-27T14:31:48.352Z,26.53
2018-07-27T14:34:16.865Z,25.87
2018-07-27T14:36:45.444Z,25.33
2018-07-27T14:39:15.560Z,27.56
2018-07-27T14:41:44.815Z,28.09
2018-07-27T14:44:13.440Z,27.33
2018-07-27T14:46:42.017Z,25.87
2018-07-27T14:49:14.335Z,27.28
2018-07-27T14:51:44.351Z,28.39
2018-07-27T14:54:14.070Z,25.69
2018-07-27T14:56:43.203Z,25.00
2018-07-27T14:59:12.142Z,25.08
2018-07-27T15:01:41.421Z,26.56
2018-07-27T15:04:11.612Z,24.76
2018-07-27T15:06:40.685Z,24.78
2018-07-27T15:09:12.796Z,24.09
2018-07-27T15:11:41.747Z,23.56
2018-07-27T15:14:10.440Z,25.25
2018-07-27T15:16:39.224Z,24.35
2018-07-27T15:19:07.764Z,24.21
2018-07-27T15:21:36.360Z,23.97
2018-07-27T15:24:05.449Z,25.37
2018-07-27T15:26:34.648Z,25.28
2018-07-27T15:29:04.525Z,25.46
2018-07-27T15:31:33.137Z,25.59
2018-07-27T15:34:04.489Z,25.19
2018-07-27T15:36:33.041Z,24.74
2018-07-27T15:39:01.720Z,23.75
2018-07-27T15:41:30.296Z,24.22
2018-07-27T15:43:58.812Z,24.01
2018-07-27T15:46:27.776Z,23.33
2018-07-27T15:48:56.559Z,25.37
2018-07-27T15:51:25.698Z,25.33
2018-07-27T15:53:54.860Z,24.74
2018-07-27T15:56:23.572Z,23.69
2018-07-27T15:58:54.448Z,23.10
2018-07-27T16:01:26.657Z,23.11
2018-07-27T16:03:56.348Z,22.91
2018-07-27T16:06:24.864Z,22.96
2018-07-27T16:08:53.525Z,22.68
2018-07-27T16:11:26.187Z,24.38
2018-07-27T16:13:54.924Z,23.21
2018-07-27T16:16:23.606Z,24.63
2018-07-27T16:18:52.296Z,24.21
2018-07-27T16:21:21.056Z,23.32
2018-07-27T16:23:50.725Z,24.45
2018-07-27T16:26:19.412Z,24.33
2018-07-27T16:28:48.953Z,23.46
2018-07-27T16:31:17.886Z,23.90
2018-07-27T16:33:46.472Z,24.07
2018-07-27T16:36:15.154Z,22.82
2018-07-27T16:38:44.860Z,24.03
2018-07-27T16:41:13.476Z,23.85
2018-07-27T16:43:44.212Z,23.90
2018-07-27T16:46:13.640Z,24.34
2018-07-27T16:48:42.345Z,24.29
2018-07-27T16:51:10.868Z,24.96
2018-07-27T16:53:40.253Z,25.24
2018-07-27T16:56:08.875Z,26.09
2018-07-27T16:58:37.883Z,24.46
2018-07-27T17:01:06.877Z,25.02
2018-07-27T17:03:35.888Z,24.83
2018-07-27T17:06:04.925Z,22.90
2018-07-27T17:08:35.789Z,21.74
2018-07-27T17:11:05.903Z,20.14
2018-07-27T17:13:36.864Z,19.24
2018-07-27T17:16:06.555Z,19.06
2018-07-27T17:18:35.353Z,18.97
2018-07-27T17:21:05.228Z,19.93
2018-07-27T17:23:35.986Z,20.65
2018-07-27T17:26:05.838Z,19.95
2018-07-27T17:28:34.873Z,19.66
2018-07-27T17:31:03.801Z,18.35
2018-07-27T17:33:35.579Z,19.37
2018-07-27T17:36:04.264Z,19.97
2018-07-27T17:38:33.917Z,19.85
2018-07-27T17:41:02.492Z,20.50
2018-07-27T17:43:31.587Z,22.61
2018-07-27T17:46:00.397Z,22.52
2018-07-27T17:48:29.574Z,22.36
2018-07-27T17:50:58.651Z,26.73
2018-07-27T17:53:28.097Z,28.62
2018-07-27T17:55:57.237Z,26.41
2018-07-27T17:58:25.792Z,24.60
2018-07-27T18:00:54.303Z,26.25
2018-07-27T18:03:22.853Z,28.36
2018-07-27T18:05:51.431Z,27.97
2018-07-27T18:08:19.975Z,29.11
2018-07-27T18:10:49.660Z,31.91
2018-07-27T18:13:20.796Z,34.98
2018-07-27T18:15:51.441Z,33.66
2018-07-27T18:18:21.395Z,35.00
2018-07-27T18:20:52.047Z,35.47
2018-07-27T18:23:22.417Z,37.21
2018-07-27T18:25:52.085Z,36.52
2018-07-27T18:28:21.756Z,37.63
2018-07-27T18:30:52.325Z,38.60
2018-07-27T18:33:21.506Z,36.93
2018-07-27T18:35:51.714Z,38.47
2018-07-27T18:38:22.328Z,40.92
2018-07-27T18:40:52.356Z,42.42
2018-07-27T18:43:21.620Z,40.66
2018-07-27T18:45:52.333Z,40.87
2018-07-27T18:48:21.796Z,41.89
2018-07-27T18:50:52.208Z,41.77
2018-07-27T18:53:22.184Z,42.24
2018-07-27T18:55:51.714Z,45.02
2018-07-27T18:58:23.179Z,46.52
2018-07-27T19:00:51.729Z,46.84
2018-07-27T19:03:21.418Z,47.00
2018-07-27T19:05:50.560Z,46.76
2018-07-27T19:08:19.192Z,47.95
2018-07-27T19:10:47.736Z,48.45
2018-07-27T19:13:16.256Z,49.14
2018-07-27T19:15:44.801Z,49.61
2018-07-27T19:18:14.004Z,51.92
2018-07-27T19:20:42.592Z,52.42
2018-07-27T19:23:13.233Z,52.35
2018-07-27T19:25:42.474Z,52.98
2018-07-27T19:28:11.056Z,52.42
2018-07-27T19:30:40.256Z,51.14
2018-07-27T19:33:08.764Z,51.48
2018-07-27T19:35:37.908Z,52.62
2018-07-27T19:38:07.819Z,52.66
2018-07-27T19:40:37.809Z,54.56
2018-07-27T19:43:06.455Z,55.61
2018-07-27T19:45:35.001Z,55.50
2018-07-27T19:48:03.516Z,55.09
2018-07-27T19:50:32.325Z,54.67
2018-07-27T19:53:01.244Z,55.23
2018-07-27T19:55:29.935Z,55.44
2018-07-27T19:57:58.464Z,54.65
2018-07-27T20:00:27.012Z,55.18
2018-07-27T20:02:55.547Z,61.90
2018-07-27T20:05:24.596Z,60.04
2018-07-27T20:07:53.100Z,59.24
2018-07-27T20:10:21.764Z,59.21
2018-07-27T20:12:50.281Z,58.75
2018-07-27T20:15:18.839Z,59.08
2018-07-27T20:17:47.576Z,58.74
2018-07-27T20:20:16.137Z,61.17
2018-07-27T20:22:44.641Z,59.83
2018-07-27T20:25:13.169Z,60.71
2018-07-27T20:27:41.739Z,60.53
2018-07-27T20:30:10.261Z,59.49
2018-07-27T20:32:38.815Z,59.44
2018-07-27T20:35:07.353Z,58.67
2018-07-27T20:37:36.847Z,57.85
2018-07-27T20:40:06.603Z,56.48
2018-07-27T20:42:38.163Z,55.01
2018-07-27T20:45:07.296Z,55.12
2018-07-27T20:47:37.670Z,55.79
2018-07-27T20:50:06.772Z,56.79
2018-07-27T20:52:36.484Z,57.15
2018-07-27T20:55:08.779Z,58.17
2018-07-27T20:57:43.987Z,59.38
2018-07-27T21:00:13.909Z,60.43
2018-07-27T21:02:43.955Z,60.40
2018-07-27T21:05:13.216Z,59.66
2018-07-27T21:07:42.404Z,58.90
2018-07-27T21:10:11.931Z,60.10
2018-07-27T21:12:44.520Z,61.87
2018-07-27T21:15:13.084Z,60.83
2018-07-27T21:17:41.672Z,60.49
2018-07-27T21:20:10.652Z,59.95
2018-07-27T21:22:39.193Z,59.60
2018-07-27T21:25:07.832Z,59.32
2018-07-27T21:27:36.389Z,59.38
2018-07-27T21:30:05.216Z,58.92
2018-07-27T21:32:33.784Z,58.33
2018-07-27T21:35:02.299Z,60.31
2018-07-27T21:37:33.100Z,61.70
2018-07-27T21:40:05.652Z,62.08
2018-07-27T21:42:36.352Z,61.47
2018-07-27T21:45:07.584Z,62.38
2018-07-27T21:47:41.275Z,63.36
2018-07-27T21:50:11.982Z,63.02
2018-07-27T21:52:41.948Z,62.27
2018-07-27T21:55:13.672Z,62.35
2018-07-27T21:57:47.167Z,61.72
2018-07-27T22:00:17.924Z,62.73
2018-07-27T22:02:49.899Z,63.06
2018-07-27T22:05:20.722Z,63.87
2018-07-27T22:07:55.519Z,62.22
2018-07-27T22:10:26.650Z,62.52
2018-07-27T22:13:00.512Z,63.00
2018-07-27T22:15:30.175Z,65.55
2018-07-27T22:17:59.798Z,65.88
2018-07-27T22:20:33.158Z,64.13
2018-07-27T22:23:02.083Z,65.80
2018-07-27T22:25:35.089Z,65.52
2018-07-27T22:28:04.980Z,65.90
2018-07-27T22:30:35.619Z,64.49
2018-07-27T22:33:07.815Z,63.64
2018-07-27T22:35:40.043Z,63.03
2018-07-27T22:38:13.103Z,62.80
2018-07-27T22:40:45.354Z,62.92
2018-07-27T22:43:16.617Z,62.51
2018-07-27T22:45:47.264Z,63.65
2018-07-27T22:48:16.814Z,63.71
2018-07-27T22:50:46.644Z,63.35
2018-07-27T22:53:16.894Z,63.84
2018-07-27T22:55:46.768Z,64.68
2018-07-27T22:58:20.911Z,64.59
2018-07-27T23:00:50.413Z,65.89
2018-07-27T23:03:20.004Z,67.16
2018-07-27T23:05:50.928Z,67.24
2018-07-27T23:08:22.282Z,65.61
2018-07-27T23:10:52.552Z,66.25
2018-07-27T23:13:22.430Z,65.28
2018-07-27T23:15:54.409Z,67.46
2018-07-27T23:18:30.219Z,69.29
2018-07-27T23:21:04.088Z,67.28
2018-07-27T23:23:36.817Z,67.28
2018-07-27T23:26:06.930Z,65.57
2018-07-27T23:28:36.128Z,66.00
2018-07-27T23:31:04.841Z,66.54
2018-07-27T23:33:33.640Z,67.40
2018-07-27T23:36:02.145Z,66.25
2018-07-27T23:38:30.692Z,68.05
2018-07-27T23:40:59.224Z,66.72
2018-07-27T23:43:27.801Z,68.03
2018-07-27T23:45:56.924Z,70.49
2018-07-27T23:48:25.607Z,69.47
2018-07-27T23:50:54.136Z,68.05
2018-07-27T23:53:23.761Z,68.81
2018-07-27T23:55:52.335Z,69.13
2018-07-27T23:58:20.864Z,68.77
